This is the latest recevied weather packets stored in our database for station/object N0NAI-13. If no packets are shown the sender has not sent any weather packets the latest 10 day(s).
| Time | Temp. | Humidity | Pressure | Rain* | Wind** | Luminosity | Snow |
|---|---|---|---|---|---|---|---|
| 1777688130 | 5.56° C | 55% | 1021.2 hPa | 0 mm | - | - | - |
| 1777687533 | 5.56° C | 54% | 1021 hPa | 0 mm | - | - | - |
| 1777674324 | 16.11° C | 31% | 1019.9 hPa | 0 mm | - | - | - |
| 1777673727 | 15.56° C | 31% | 1019.8 hPa | 0 mm | - | - | - |
| 1777673125 | 15° C | 31% | 1019.9 hPa | 0 mm | - | - | - |
| 1777671930 | 15.56° C | 31% | 1019.8 hPa | 0 mm | - | - | - |
| 1777671333 | 14.44° C | 31% | 1019.8 hPa | 0 mm | - | - | - |
| 1777670120 | 14.44° C | 32% | 1019.8 hPa | 0 mm | - | - | - |
| 1777669523 | 13.89° C | 31% | 1019.7 hPa | 0 mm | - | - | - |
| 1777668920 | 14.44° C | 32% | 1019.8 hPa | 0 mm | - | - | - |
| 1777668317 | 13.89° C | 32% | 1019.8 hPa | 0 mm | - | - | - |
| 1777667732 | 13.89° C | 34% | 1019.8 hPa | 0 mm | - | - | - |
| 1777667116 | 13.33° C | 34% | 1019.8 hPa | 0 mm | - | - | - |
| 1777664131 | 13.33° C | 36% | 1020 hPa | 0 mm | - | - | - |
| 1777662919 | 12.78° C | 36% | 1020 hPa | 0 mm | - | - | - |
| 1777662322 | 12.78° C | 38% | 1020 hPa | 0 mm | - | - | - |
| 1777660531 | 11.11° C | 40% | 1020 hPa | 0 mm | - | - | - |
| 1777658124 | 11.11° C | 44% | 1020 hPa | 0 mm | - | - | - |
| 1777656919 | 11.67° C | 42% | 1020 hPa | 0 mm | - | - | - |
| 1777655718 | 11.11° C | 43% | 1020.2 hPa | 0 mm | - | - | - |
| 1777654523 | 11.67° C | 44% | 1020.2 hPa | 0 mm | - | - | - |
| 1777651519 | 10.56° C | 45% | 1020.2 hPa | 0 mm | - | - | - |
| 1777650922 | 10° C | 48% | 1020.3 hPa | 0 mm | - | - | - |
| 1777650325 | 8.89° C | 49% | 1020.2 hPa | 0 mm | - | - | - |
| 1777649728 | 10.56° C | 47% | 1020.2 hPa | 0 mm | - | - | - |
* Rain latest hour (hover to see other rain measurements)
** Current wind speed in m/s (hover to see current wind gust speed)